sensor_id;sensor_type;location;lat;lon;timestamp;P1;durP1;ratioP1;P2;durP2;ratioP2
20375;SDS011;10347;51.828;6.466;2022-08-19T00:01:15;4.20;;;3.80;;
20375;SDS011;10347;51.828;6.466;2022-08-19T00:03:41;3.75;;;3.47;;
20375;SDS011;10347;51.828;6.466;2022-08-19T00:06:07;3.42;;;3.13;;
20375;SDS011;10347;51.828;6.466;2022-08-19T00:08:32;4.88;;;3.50;;
20375;SDS011;10347;51.828;6.466;2022-08-19T00:10:58;4.25;;;3.88;;
20375;SDS011;10347;51.828;6.466;2022-08-19T00:13:24;5.80;;;4.68;;
20375;SDS011;10347;51.828;6.466;2022-08-19T00:15:49;4.95;;;4.55;;
20375;SDS011;10347;51.828;6.466;2022-08-19T00:18:15;4.68;;;4.32;;
20375;SDS011;10347;51.828;6.466;2022-08-19T00:20:41;4.75;;;4.35;;
20375;SDS011;10347;51.828;6.466;2022-08-19T00:25:38;5.28;;;4.88;;
20375;SDS011;10347;51.828;6.466;2022-08-19T00:28:04;4.53;;;4.22;;
20375;SDS011;10347;51.828;6.466;2022-08-19T00:30:30;6.78;;;6.20;;
20375;SDS011;10347;51.828;6.466;2022-08-19T00:32:55;5.35;;;4.95;;
20375;SDS011;10347;51.828;6.466;2022-08-19T00:35:21;6.30;;;5.80;;
20375;SDS011;10347;51.828;6.466;2022-08-19T00:37:48;4.97;;;4.47;;
20375;SDS011;10347;51.828;6.466;2022-08-19T00:40:14;6.30;;;5.78;;
20375;SDS011;10347;51.828;6.466;2022-08-19T00:42:41;5.95;;;5.45;;
20375;SDS011;10347;51.828;6.466;2022-08-19T00:45:12;6.03;;;5.60;;
20375;SDS011;10347;51.828;6.466;2022-08-19T00:47:41;6.18;;;5.60;;
20375;SDS011;10347;51.828;6.466;2022-08-19T00:50:08;7.32;;;6.72;;
20375;SDS011;10347;51.828;6.466;2022-08-19T00:52:37;6.35;;;5.85;;
20375;SDS011;10347;51.828;6.466;2022-08-19T00:55:10;6.13;;;5.63;;
20375;SDS011;10347;51.828;6.466;2022-08-19T00:57:44;7.32;;;6.72;;
20375;SDS011;10347;51.828;6.466;2022-08-19T01:00:15;6.53;;;5.97;;
20375;SDS011;10347;51.828;6.466;2022-08-19T01:02:42;7.72;;;6.95;;
20375;SDS011;10347;51.828;6.466;2022-08-19T01:05:13;6.75;;;6.15;;
20375;SDS011;10347;51.828;6.466;2022-08-19T01:07:43;8.13;;;7.43;;
20375;SDS011;10347;51.828;6.466;2022-08-19T01:10:11;9.52;;;7.93;;
20375;SDS011;10347;51.828;6.466;2022-08-19T01:12:39;8.02;;;7.25;;
20375;SDS011;10347;51.828;6.466;2022-08-19T01:15:06;8.02;;;7.30;;
20375;SDS011;10347;51.828;6.466;2022-08-19T01:17:35;8.95;;;8.15;;
20375;SDS011;10347;51.828;6.466;2022-08-19T01:20:03;8.30;;;7.50;;
20375;SDS011;10347;51.828;6.466;2022-08-19T01:22:34;9.48;;;8.65;;
20375;SDS011;10347;51.828;6.466;2022-08-19T01:25:07;10.15;;;8.27;;
20375;SDS011;10347;51.828;6.466;2022-08-19T01:27:37;9.05;;;8.15;;
20375;SDS011;10347;51.828;6.466;2022-08-19T01:30:04;8.30;;;7.38;;
20375;SDS011;10347;51.828;6.466;2022-08-19T01:32:31;8.82;;;7.93;;
20375;SDS011;10347;51.828;6.466;2022-08-19T01:34:57;8.02;;;7.30;;
20375;SDS011;10347;51.828;6.466;2022-08-19T01:37:22;8.73;;;7.93;;
20375;SDS011;10347;51.828;6.466;2022-08-19T01:39:48;8.27;;;7.47;;
20375;SDS011;10347;51.828;6.466;2022-08-19T01:42:15;8.43;;;7.68;;
20375;SDS011;10347;51.828;6.466;2022-08-19T01:44:40;7.20;;;6.60;;
20375;SDS011;10347;51.828;6.466;2022-08-19T01:47:06;8.38;;;7.68;;
20375;SDS011;10347;51.828;6.466;2022-08-19T01:49:34;9.85;;;8.90;;
20375;SDS011;10347;51.828;6.466;2022-08-19T01:52:00;9.95;;;8.88;;
20375;SDS011;10347;51.828;6.466;2022-08-19T01:54:29;8.43;;;7.72;;
20375;SDS011;10347;51.828;6.466;2022-08-19T01:57:00;8.48;;;7.78;;
20375;SDS011;10347;51.828;6.466;2022-08-19T01:59:28;8.63;;;7.85;;
20375;SDS011;10347;51.828;6.466;2022-08-19T02:01:55;8.75;;;7.97;;
20375;SDS011;10347;51.828;6.466;2022-08-19T02:04:20;8.68;;;7.88;;
20375;SDS011;10347;51.828;6.466;2022-08-19T02:06:46;8.57;;;7.68;;
20375;SDS011;10347;51.828;6.466;2022-08-19T02:09:13;8.98;;;8.13;;
20375;SDS011;10347;51.828;6.466;2022-08-19T02:11:38;8.07;;;7.38;;
20375;SDS011;10347;51.828;6.466;2022-08-19T02:14:06;8.32;;;7.63;;
20375;SDS011;10347;51.828;6.466;2022-08-19T02:16:32;9.38;;;8.48;;
20375;SDS011;10347;51.828;6.466;2022-08-19T02:18:58;11.52;;;10.38;;
20375;SDS011;10347;51.828;6.466;2022-08-19T02:21:25;9.55;;;8.65;;
20375;SDS011;10347;51.828;6.466;2022-08-19T02:23:52;9.18;;;8.27;;
20375;SDS011;10347;51.828;6.466;2022-08-19T02:26:18;9.93;;;8.93;;
20375;SDS011;10347;51.828;6.466;2022-08-19T02:28:44;8.75;;;7.97;;
20375;SDS011;10347;51.828;6.466;2022-08-19T02:31:14;9.75;;;8.45;;
20375;SDS011;10347;51.828;6.466;2022-08-19T02:33:41;8.48;;;7.68;;
20375;SDS011;10347;51.828;6.466;2022-08-19T02:36:07;11.93;;;7.93;;
20375;SDS011;10347;51.828;6.466;2022-08-19T02:38:34;8.68;;;7.88;;
20375;SDS011;10347;51.828;6.466;2022-08-19T02:41:03;7.78;;;7.07;;
20375;SDS011;10347;51.828;6.466;2022-08-19T02:43:32;7.13;;;6.45;;
20375;SDS011;10347;51.828;6.466;2022-08-19T02:46:02;6.13;;;5.65;;
20375;SDS011;10347;51.828;6.466;2022-08-19T02:48:46;6.55;;;6.00;;
20375;SDS011;10347;51.828;6.466;2022-08-19T02:51:17;7.28;;;6.50;;
20375;SDS011;10347;51.828;6.466;2022-08-19T02:53:44;6.15;;;5.65;;
20375;SDS011;10347;51.828;6.466;2022-08-19T02:56:10;6.30;;;5.80;;
20375;SDS011;10347;51.828;6.466;2022-08-19T02:58:35;6.32;;;5.85;;
20375;SDS011;10347;51.828;6.466;2022-08-19T03:01:01;7.30;;;6.60;;
20375;SDS011;10347;51.828;6.466;2022-08-19T03:03:27;7.78;;;7.15;;
20375;SDS011;10347;51.828;6.466;2022-08-19T03:06:02;6.47;;;5.97;;
20375;SDS011;10347;51.828;6.466;2022-08-19T03:08:29;7.20;;;6.60;;
20375;SDS011;10347;51.828;6.466;2022-08-19T03:10:55;7.55;;;6.88;;
20375;SDS011;10347;51.828;6.466;2022-08-19T03:13:20;7.22;;;6.53;;
20375;SDS011;10347;51.828;6.466;2022-08-19T03:15:47;13.98;;;7.63;;
20375;SDS011;10347;51.828;6.466;2022-08-19T03:18:13;8.57;;;7.50;;
20375;SDS011;10347;51.828;6.466;2022-08-19T03:20:43;7.55;;;6.85;;
20375;SDS011;10347;51.828;6.466;2022-08-19T03:23:11;7.13;;;6.47;;
20375;SDS011;10347;51.828;6.466;2022-08-19T03:25:40;7.30;;;6.60;;
20375;SDS011;10347;51.828;6.466;2022-08-19T03:28:09;8.05;;;7.22;;
20375;SDS011;10347;51.828;6.466;2022-08-19T03:30:39;7.75;;;7.00;;
20375;SDS011;10347;51.828;6.466;2022-08-19T03:33:06;8.73;;;7.93;;
20375;SDS011;10347;51.828;6.466;2022-08-19T03:35:32;8.45;;;7.65;;
20375;SDS011;10347;51.828;6.466;2022-08-19T03:37:58;8.00;;;7.30;;
20375;SDS011;10347;51.828;6.466;2022-08-19T03:40:24;7.78;;;7.00;;
20375;SDS011;10347;51.828;6.466;2022-08-19T03:42:50;7.93;;;7.13;;
20375;SDS011;10347;51.828;6.466;2022-08-19T03:45:16;7.43;;;6.72;;
20375;SDS011;10347;51.828;6.466;2022-08-19T03:47:42;7.57;;;6.78;;
20375;SDS011;10347;51.828;6.466;2022-08-19T03:50:08;7.95;;;7.13;;
20375;SDS011;10347;51.828;6.466;2022-08-19T03:52:34;6.53;;;5.95;;
20375;SDS011;10347;51.828;6.466;2022-08-19T03:55:01;7.25;;;6.57;;
20375;SDS011;10347;51.828;6.466;2022-08-19T03:57:27;7.43;;;6.65;;
20375;SDS011;10347;51.828;6.466;2022-08-19T03:59:53;8.02;;;7.22;;
20375;SDS011;10347;51.828;6.466;2022-08-19T04:02:18;7.72;;;6.90;;
20375;SDS011;10347;51.828;6.466;2022-08-19T04:04:45;9.57;;;8.57;;
20375;SDS011;10347;51.828;6.466;2022-08-19T04:07:11;9.35;;;8.48;;
20375;SDS011;10347;51.828;6.466;2022-08-19T04:09:40;9.27;;;8.38;;
20375;SDS011;10347;51.828;6.466;2022-08-19T04:12:06;9.35;;;8.45;;
20375;SDS011;10347;51.828;6.466;2022-08-19T04:14:32;8.88;;;7.97;;
20375;SDS011;10347;51.828;6.466;2022-08-19T04:16:58;7.80;;;7.00;;
20375;SDS011;10347;51.828;6.466;2022-08-19T04:19:25;8.10;;;7.32;;
20375;SDS011;10347;51.828;6.466;2022-08-19T04:21:54;7.55;;;6.90;;
20375;SDS011;10347;51.828;6.466;2022-08-19T04:24:20;7.75;;;7.05;;
20375;SDS011;10347;51.828;6.466;2022-08-19T04:26:47;8.55;;;7.70;;
20375;SDS011;10347;51.828;6.466;2022-08-19T04:29:14;9.07;;;8.18;;
20375;SDS011;10347;51.828;6.466;2022-08-19T04:31:43;8.68;;;7.82;;
20375;SDS011;10347;51.828;6.466;2022-08-19T04:34:10;9.48;;;8.00;;
20375;SDS011;10347;51.828;6.466;2022-08-19T04:36:40;8.07;;;7.32;;
20375;SDS011;10347;51.828;6.466;2022-08-19T04:39:08;8.23;;;7.53;;
20375;SDS011;10347;51.828;6.466;2022-08-19T04:41:36;9.60;;;8.70;;
20375;SDS011;10347;51.828;6.466;2022-08-19T04:44:20;8.88;;;7.97;;
20375;SDS011;10347;51.828;6.466;2022-08-19T04:46:47;8.57;;;7.85;;
20375;SDS011;10347;51.828;6.466;2022-08-19T04:49:14;8.73;;;7.93;;
20375;SDS011;10347;51.828;6.466;2022-08-19T04:51:42;9.85;;;8.93;;
20375;SDS011;10347;51.828;6.466;2022-08-19T04:54:09;9.48;;;8.48;;
20375;SDS011;10347;51.828;6.466;2022-08-19T04:56:35;9.40;;;8.43;;
20375;SDS011;10347;51.828;6.466;2022-08-19T04:59:01;10.10;;;8.75;;
20375;SDS011;10347;51.828;6.466;2022-08-19T05:01:30;11.65;;;10.40;;
20375;SDS011;10347;51.828;6.466;2022-08-19T05:03:58;11.07;;;9.88;;
20375;SDS011;10347;51.828;6.466;2022-08-19T05:06:30;10.40;;;9.40;;
20375;SDS011;10347;51.828;6.466;2022-08-19T05:08:58;10.27;;;9.27;;
20375;SDS011;10347;51.828;6.466;2022-08-19T05:11:25;11.52;;;9.65;;
20375;SDS011;10347;51.828;6.466;2022-08-19T05:13:53;11.27;;;9.32;;
20375;SDS011;10347;51.828;6.466;2022-08-19T05:16:20;10.40;;;9.40;;
20375;SDS011;10347;51.828;6.466;2022-08-19T05:18:47;11.25;;;10.05;;
20375;SDS011;10347;51.828;6.466;2022-08-19T05:21:32;9.63;;;8.73;;
20375;SDS011;10347;51.828;6.466;2022-08-19T05:24:18;10.23;;;9.23;;
20375;SDS011;10347;51.828;6.466;2022-08-19T05:26:45;10.55;;;9.43;;
20375;SDS011;10347;51.828;6.466;2022-08-19T05:29:18;9.98;;;9.07;;
20375;SDS011;10347;51.828;6.466;2022-08-19T05:31:45;10.82;;;9.73;;
20375;SDS011;10347;51.828;6.466;2022-08-19T05:34:14;11.55;;;10.45;;
20375;SDS011;10347;51.828;6.466;2022-08-19T05:36:41;10.00;;;9.10;;
20375;SDS011;10347;51.828;6.466;2022-08-19T05:39:10;9.68;;;8.77;;
20375;SDS011;10347;51.828;6.466;2022-08-19T05:41:45;12.43;;;11.13;;
20375;SDS011;10347;51.828;6.466;2022-08-19T05:44:12;11.05;;;9.85;;
20375;SDS011;10347;51.828;6.466;2022-08-19T05:46:39;10.10;;;9.15;;
20375;SDS011;10347;51.828;6.466;2022-08-19T05:49:07;9.90;;;8.98;;
20375;SDS011;10347;51.828;6.466;2022-08-19T05:51:34;9.57;;;8.68;;
20375;SDS011;10347;51.828;6.466;2022-08-19T05:54:02;10.52;;;9.50;;
20375;SDS011;10347;51.828;6.466;2022-08-19T05:56:29;9.63;;;8.73;;
20375;SDS011;10347;51.828;6.466;2022-08-19T05:58:55;11.02;;;9.95;;
20375;SDS011;10347;51.828;6.466;2022-08-19T06:01:22;9.20;;;8.40;;
20375;SDS011;10347;51.828;6.466;2022-08-19T06:03:48;9.02;;;8.23;;
20375;SDS011;10347;51.828;6.466;2022-08-19T06:06:14;9.18;;;8.25;;
20375;SDS011;10347;51.828;6.466;2022-08-19T06:08:40;11.13;;;9.57;;
20375;SDS011;10347;51.828;6.466;2022-08-19T06:13:48;11.43;;;10.32;;
20375;SDS011;10347;51.828;6.466;2022-08-19T06:16:17;12.63;;;11.43;;
20375;SDS011;10347;51.828;6.466;2022-08-19T06:18:46;11.35;;;10.25;;
20375;SDS011;10347;51.828;6.466;2022-08-19T06:21:11;11.07;;;9.25;;
20375;SDS011;10347;51.828;6.466;2022-08-19T06:23:37;10.13;;;9.13;;
20375;SDS011;10347;51.828;6.466;2022-08-19T06:26:03;10.55;;;8.18;;
20375;SDS011;10347;51.828;6.466;2022-08-19T06:28:29;9.63;;;8.73;;
20375;SDS011;10347;51.828;6.466;2022-08-19T06:30:55;10.85;;;9.75;;
20375;SDS011;10347;51.828;6.466;2022-08-19T06:33:20;10.88;;;9.77;;
20375;SDS011;10347;51.828;6.466;2022-08-19T06:35:46;10.93;;;9.93;;
20375;SDS011;10347;51.828;6.466;2022-08-19T06:38:12;11.73;;;10.57;;
20375;SDS011;10347;51.828;6.466;2022-08-19T06:40:37;13.85;;;12.50;;
20375;SDS011;10347;51.828;6.466;2022-08-19T06:43:03;14.07;;;12.35;;
20375;SDS011;10347;51.828;6.466;2022-08-19T06:45:29;12.95;;;11.63;;
20375;SDS011;10347;51.828;6.466;2022-08-19T06:47:55;14.85;;;13.35;;
20375;SDS011;10347;51.828;6.466;2022-08-19T06:50:24;15.30;;;13.35;;
20375;SDS011;10347;51.828;6.466;2022-08-19T06:52:50;16.77;;;14.98;;
20375;SDS011;10347;51.828;6.466;2022-08-19T06:55:15;15.80;;;13.82;;
20375;SDS011;10347;51.828;6.466;2022-08-19T06:57:42;16.85;;;15.07;;
20375;SDS011;10347;51.828;6.466;2022-08-19T07:00:09;16.73;;;15.02;;
20375;SDS011;10347;51.828;6.466;2022-08-19T07:02:38;13.45;;;12.10;;
20375;SDS011;10347;51.828;6.466;2022-08-19T07:05:07;18.05;;;15.32;;
20375;SDS011;10347;51.828;6.466;2022-08-19T07:07:33;22.38;;;18.85;;
20375;SDS011;10347;51.828;6.466;2022-08-19T07:09:59;18.85;;;16.35;;
20375;SDS011;10347;51.828;6.466;2022-08-19T07:12:26;19.52;;;16.42;;
20375;SDS011;10347;51.828;6.466;2022-08-19T07:14:53;19.38;;;16.83;;
20375;SDS011;10347;51.828;6.466;2022-08-19T07:17:19;18.15;;;15.68;;
20375;SDS011;10347;51.828;6.466;2022-08-19T07:19:45;16.80;;;15.00;;
20375;SDS011;10347;51.828;6.466;2022-08-19T07:22:10;18.73;;;16.73;;
20375;SDS011;10347;51.828;6.466;2022-08-19T07:24:37;21.77;;;16.50;;
20375;SDS011;10347;51.828;6.466;2022-08-19T07:27:03;21.80;;;18.60;;
20375;SDS011;10347;51.828;6.466;2022-08-19T07:29:31;21.50;;;17.08;;
20375;SDS011;10347;51.828;6.466;2022-08-19T07:31:58;20.65;;;17.75;;
20375;SDS011;10347;51.828;6.466;2022-08-19T07:34:25;22.67;;;18.90;;
20375;SDS011;10347;51.828;6.466;2022-08-19T07:36:53;22.05;;;18.65;;
20375;SDS011;10347;51.828;6.466;2022-08-19T07:39:22;18.88;;;16.13;;
20375;SDS011;10347;51.828;6.466;2022-08-19T07:41:53;19.05;;;16.17;;
20375;SDS011;10347;51.828;6.466;2022-08-19T07:44:20;18.55;;;15.70;;
20375;SDS011;10347;51.828;6.466;2022-08-19T07:46:49;18.88;;;16.77;;
20375;SDS011;10347;51.828;6.466;2022-08-19T07:49:16;23.35;;;19.40;;
20375;SDS011;10347;51.828;6.466;2022-08-19T07:51:44;22.85;;;18.20;;
20375;SDS011;10347;51.828;6.466;2022-08-19T07:54:32;20.02;;;17.23;;
20375;SDS011;10347;51.828;6.466;2022-08-19T07:57:00;23.23;;;17.85;;
20375;SDS011;10347;51.828;6.466;2022-08-19T07:59:27;23.42;;;19.67;;
20375;SDS011;10347;51.828;6.466;2022-08-19T08:01:53;23.25;;;18.45;;
20375;SDS011;10347;51.828;6.466;2022-08-19T08:04:19;21.92;;;17.67;;
20375;SDS011;10347;51.828;6.466;2022-08-19T08:07:04;24.50;;;18.75;;
20375;SDS011;10347;51.828;6.466;2022-08-19T08:09:49;22.33;;;16.75;;
20375;SDS011;10347;51.828;6.466;2022-08-19T08:12:19;17.80;;;14.68;;
20375;SDS011;10347;51.828;6.466;2022-08-19T08:14:50;18.77;;;15.52;;
20375;SDS011;10347;51.828;6.466;2022-08-19T08:17:18;19.20;;;15.10;;
20375;SDS011;10347;51.828;6.466;2022-08-19T08:19:48;17.80;;;15.40;;
20375;SDS011;10347;51.828;6.466;2022-08-19T08:22:16;19.75;;;16.10;;
20375;SDS011;10347;51.828;6.466;2022-08-19T08:25:03;19.55;;;16.42;;
20375;SDS011;10347;51.828;6.466;2022-08-19T08:27:38;23.52;;;18.08;;
20375;SDS011;10347;51.828;6.466;2022-08-19T08:30:06;21.60;;;16.98;;
20375;SDS011;10347;51.828;6.466;2022-08-19T08:32:34;19.70;;;16.05;;
20375;SDS011;10347;51.828;6.466;2022-08-19T08:35:02;21.55;;;16.40;;
20375;SDS011;10347;51.828;6.466;2022-08-19T08:37:29;17.73;;;14.57;;
20375;SDS011;10347;51.828;6.466;2022-08-19T08:39:55;18.65;;;14.30;;
20375;SDS011;10347;51.828;6.466;2022-08-19T08:42:22;18.58;;;15.45;;
20375;SDS011;10347;51.828;6.466;2022-08-19T08:44:58;16.50;;;13.20;;
20375;SDS011;10347;51.828;6.466;2022-08-19T08:47:32;20.73;;;15.50;;
20375;SDS011;10347;51.828;6.466;2022-08-19T08:50:03;20.80;;;16.85;;
20375;SDS011;10347;51.828;6.466;2022-08-19T08:52:33;24.00;;;16.23;;
20375;SDS011;10347;51.828;6.466;2022-08-19T08:55:07;18.08;;;15.10;;
20375;SDS011;10347;51.828;6.466;2022-08-19T08:57:49;18.55;;;14.70;;
20375;SDS011;10347;51.828;6.466;2022-08-19T09:00:23;19.95;;;14.90;;
20375;SDS011;10347;51.828;6.466;2022-08-19T09:02:53;21.00;;;16.08;;
20375;SDS011;10347;51.828;6.466;2022-08-19T09:05:19;20.08;;;16.27;;
20375;SDS011;10347;51.828;6.466;2022-08-19T09:07:50;21.60;;;16.08;;
20375;SDS011;10347;51.828;6.466;2022-08-19T09:15:47;29.20;;;19.27;;
20375;SDS011;10347;51.828;6.466;2022-08-19T09:18:18;23.75;;;18.90;;
20375;SDS011;10347;51.828;6.466;2022-08-19T09:20:45;24.75;;;19.00;;
20375;SDS011;10347;51.828;6.466;2022-08-19T09:23:12;23.85;;;18.85;;
20375;SDS011;10347;51.828;6.466;2022-08-19T09:25:38;26.48;;;19.08;;
20375;SDS011;10347;51.828;6.466;2022-08-19T09:28:05;28.27;;;20.63;;
20375;SDS011;10347;51.828;6.466;2022-08-19T09:30:33;25.15;;;17.95;;
20375;SDS011;10347;51.828;6.466;2022-08-19T09:33:04;21.05;;;15.82;;
20375;SDS011;10347;51.828;6.466;2022-08-19T09:35:30;23.95;;;18.35;;
20375;SDS011;10347;51.828;6.466;2022-08-19T09:37:56;26.63;;;19.80;;
20375;SDS011;10347;51.828;6.466;2022-08-19T09:40:23;24.58;;;18.85;;
20375;SDS011;10347;51.828;6.466;2022-08-19T09:42:50;28.52;;;18.52;;
20375;SDS011;10347;51.828;6.466;2022-08-19T09:45:17;24.27;;;17.90;;
20375;SDS011;10347;51.828;6.466;2022-08-19T09:47:45;23.33;;;16.98;;
20375;SDS011;10347;51.828;6.466;2022-08-19T09:50:11;23.77;;;16.60;;
20375;SDS011;10347;51.828;6.466;2022-08-19T09:52:38;21.00;;;16.13;;
20375;SDS011;10347;51.828;6.466;2022-08-19T09:55:04;25.88;;;17.13;;
20375;SDS011;10347;51.828;6.466;2022-08-19T09:57:31;18.73;;;13.52;;
20375;SDS011;10347;51.828;6.466;2022-08-19T09:59:57;18.73;;;14.40;;
20375;SDS011;10347;51.828;6.466;2022-08-19T10:02:23;17.05;;;13.25;;
20375;SDS011;10347;51.828;6.466;2022-08-19T10:04:49;18.73;;;12.82;;
20375;SDS011;10347;51.828;6.466;2022-08-19T10:07:34;17.27;;;13.45;;
20375;SDS011;10347;51.828;6.466;2022-08-19T10:10:00;15.05;;;10.60;;
20375;SDS011;10347;51.828;6.466;2022-08-19T10:12:26;14.57;;;11.05;;
20375;SDS011;10347;51.828;6.466;2022-08-19T10:14:51;11.57;;;8.18;;
20375;SDS011;10347;51.828;6.466;2022-08-19T10:17:19;11.00;;;8.70;;
20375;SDS011;10347;51.828;6.466;2022-08-19T10:19:44;9.02;;;7.75;;
20375;SDS011;10347;51.828;6.466;2022-08-19T10:22:10;10.80;;;7.80;;
20375;SDS011;10347;51.828;6.466;2022-08-19T10:24:39;8.10;;;6.57;;
20375;SDS011;10347;51.828;6.466;2022-08-19T10:27:06;11.68;;;6.63;;
20375;SDS011;10347;51.828;6.466;2022-08-19T10:29:32;11.30;;;7.78;;
20375;SDS011;10347;51.828;6.466;2022-08-19T10:32:03;9.30;;;7.95;;
20375;SDS011;10347;51.828;6.466;2022-08-19T10:34:33;10.73;;;8.20;;
20375;SDS011;10347;51.828;6.466;2022-08-19T10:37:01;6.38;;;5.78;;
20375;SDS011;10347;51.828;6.466;2022-08-19T10:39:30;6.50;;;5.68;;
20375;SDS011;10347;51.828;6.466;2022-08-19T10:41:57;7.78;;;5.40;;
20375;SDS011;10347;51.828;6.466;2022-08-19T10:44:23;5.60;;;5.03;;
20375;SDS011;10347;51.828;6.466;2022-08-19T10:46:49;6.45;;;5.70;;
20375;SDS011;10347;51.828;6.466;2022-08-19T10:49:16;4.85;;;4.35;;
20375;SDS011;10347;51.828;6.466;2022-08-19T10:51:43;6.07;;;5.47;;
20375;SDS011;10347;51.828;6.466;2022-08-19T10:54:28;7.38;;;5.28;;
20375;SDS011;10347;51.828;6.466;2022-08-19T10:57:14;6.22;;;5.10;;
20375;SDS011;10347;51.828;6.466;2022-08-19T10:59:40;10.70;;;6.35;;
20375;SDS011;10347;51.828;6.466;2022-08-19T11:02:07;6.20;;;5.47;;
20375;SDS011;10347;51.828;6.466;2022-08-19T11:04:38;10.75;;;7.53;;
20375;SDS011;10347;51.828;6.466;2022-08-19T11:07:05;8.32;;;6.10;;
20375;SDS011;10347;51.828;6.466;2022-08-19T11:09:35;8.52;;;6.18;;
20375;SDS011;10347;51.828;6.466;2022-08-19T11:12:04;8.75;;;6.15;;
20375;SDS011;10347;51.828;6.466;2022-08-19T11:14:31;9.30;;;5.95;;
20375;SDS011;10347;51.828;6.466;2022-08-19T11:16:58;7.43;;;5.55;;
20375;SDS011;10347;51.828;6.466;2022-08-19T11:19:24;4.85;;;3.95;;
20375;SDS011;10347;51.828;6.466;2022-08-19T11:21:50;4.68;;;3.63;;
20375;SDS011;10347;51.828;6.466;2022-08-19T11:24:21;6.53;;;4.13;;
20375;SDS011;10347;51.828;6.466;2022-08-19T11:26:50;5.45;;;3.72;;
20375;SDS011;10347;51.828;6.466;2022-08-19T11:29:17;7.43;;;5.00;;
20375;SDS011;10347;51.828;6.466;2022-08-19T11:31:46;7.53;;;4.63;;
20375;SDS011;10347;51.828;6.466;2022-08-19T11:34:14;7.35;;;4.28;;
20375;SDS011;10347;51.828;6.466;2022-08-19T11:36:43;5.88;;;4.68;;
20375;SDS011;10347;51.828;6.466;2022-08-19T11:39:11;7.70;;;5.68;;
20375;SDS011;10347;51.828;6.466;2022-08-19T11:41:38;6.32;;;5.13;;
20375;SDS011;10347;51.828;6.466;2022-08-19T11:44:04;5.50;;;5.00;;
20375;SDS011;10347;51.828;6.466;2022-08-19T11:46:31;7.82;;;4.90;;
20375;SDS011;10347;51.828;6.466;2022-08-19T11:48:57;11.77;;;7.55;;
20375;SDS011;10347;51.828;6.466;2022-08-19T11:51:25;11.20;;;6.57;;
20375;SDS011;10347;51.828;6.466;2022-08-19T11:53:52;7.93;;;6.28;;
20375;SDS011;10347;51.828;6.466;2022-08-19T11:56:19;7.00;;;4.68;;
20375;SDS011;10347;51.828;6.466;2022-08-19T11:58:46;10.38;;;6.72;;
20375;SDS011;10347;51.828;6.466;2022-08-19T12:01:13;8.65;;;6.47;;
20375;SDS011;10347;51.828;6.466;2022-08-19T12:03:41;10.60;;;7.40;;
20375;SDS011;10347;51.828;6.466;2022-08-19T12:06:08;11.73;;;8.35;;
20375;SDS011;10347;51.828;6.466;2022-08-19T12:08:37;9.13;;;6.50;;
20375;SDS011;10347;51.828;6.466;2022-08-19T12:11:03;10.27;;;6.50;;
20375;SDS011;10347;51.828;6.466;2022-08-19T12:13:32;13.40;;;8.73;;
20375;SDS011;10347;51.828;6.466;2022-08-19T12:15:59;15.15;;;8.57;;
20375;SDS011;10347;51.828;6.466;2022-08-19T12:18:25;13.00;;;8.10;;
20375;SDS011;10347;51.828;6.466;2022-08-19T12:20:52;9.18;;;6.72;;
20375;SDS011;10347;51.828;6.466;2022-08-19T12:23:21;7.45;;;5.97;;
20375;SDS011;10347;51.828;6.466;2022-08-19T12:25:48;7.50;;;6.55;;
20375;SDS011;10347;51.828;6.466;2022-08-19T12:28:18;7.47;;;6.43;;
20375;SDS011;10347;51.828;6.466;2022-08-19T12:30:44;9.13;;;7.95;;
20375;SDS011;10347;51.828;6.466;2022-08-19T12:33:10;7.63;;;6.18;;
20375;SDS011;10347;51.828;6.466;2022-08-19T12:35:39;7.32;;;5.95;;
20375;SDS011;10347;51.828;6.466;2022-08-19T12:38:06;7.38;;;6.68;;
20375;SDS011;10347;51.828;6.466;2022-08-19T12:40:32;13.38;;;8.65;;
20375;SDS011;10347;51.828;6.466;2022-08-19T12:42:58;12.98;;;9.85;;
20375;SDS011;10347;51.828;6.466;2022-08-19T12:45:24;10.77;;;8.40;;
20375;SDS011;10347;51.828;6.466;2022-08-19T12:47:49;9.18;;;7.68;;
20375;SDS011;10347;51.828;6.466;2022-08-19T12:50:16;10.27;;;7.78;;
20375;SDS011;10347;51.828;6.466;2022-08-19T12:52:42;9.23;;;6.72;;
20375;SDS011;10347;51.828;6.466;2022-08-19T12:55:08;10.43;;;6.57;;
20375;SDS011;10347;51.828;6.466;2022-08-19T12:57:35;7.07;;;6.00;;
20375;SDS011;10347;51.828;6.466;2022-08-19T13:02:33;7.22;;;6.28;;
20375;SDS011;10347;51.828;6.466;2022-08-19T13:04:59;8.95;;;6.72;;
20375;SDS011;10347;51.828;6.466;2022-08-19T13:07:25;10.63;;;8.50;;
20375;SDS011;10347;51.828;6.466;2022-08-19T13:09:51;8.55;;;6.63;;
20375;SDS011;10347;51.828;6.466;2022-08-19T13:12:17;8.35;;;6.68;;
20375;SDS011;10347;51.828;6.466;2022-08-19T13:14:43;7.20;;;6.25;;
20375;SDS011;10347;51.828;6.466;2022-08-19T13:17:11;6.40;;;5.80;;
20375;SDS011;10347;51.828;6.466;2022-08-19T13:19:38;8.27;;;6.57;;
20375;SDS011;10347;51.828;6.466;2022-08-19T13:22:04;7.05;;;6.00;;
20375;SDS011;10347;51.828;6.466;2022-08-19T13:24:30;7.10;;;6.40;;
20375;SDS011;10347;51.828;6.466;2022-08-19T13:26:55;9.63;;;8.23;;
20375;SDS011;10347;51.828;6.466;2022-08-19T13:29:21;8.68;;;6.85;;
20375;SDS011;10347;51.828;6.466;2022-08-19T13:32:05;6.40;;;5.80;;
20375;SDS011;10347;51.828;6.466;2022-08-19T13:34:50;6.22;;;5.28;;
20375;SDS011;10347;51.828;6.466;2022-08-19T13:37:15;8.60;;;4.82;;
20375;SDS011;10347;51.828;6.466;2022-08-19T13:40:01;5.20;;;4.13;;
20375;SDS011;10347;51.828;6.466;2022-08-19T13:42:26;5.78;;;4.30;;
20375;SDS011;10347;51.828;6.466;2022-08-19T13:44:53;5.75;;;3.60;;
20375;SDS011;10347;51.828;6.466;2022-08-19T13:47:19;5.80;;;5.13;;
20375;SDS011;10347;51.828;6.466;2022-08-19T13:49:44;6.55;;;4.80;;
20375;SDS011;10347;51.828;6.466;2022-08-19T13:52:10;7.22;;;5.18;;
20375;SDS011;10347;51.828;6.466;2022-08-19T13:54:35;7.43;;;5.88;;
20375;SDS011;10347;51.828;6.466;2022-08-19T13:57:01;5.97;;;5.30;;
20375;SDS011;10347;51.828;6.466;2022-08-19T13:59:26;6.00;;;5.07;;
20375;SDS011;10347;51.828;6.466;2022-08-19T14:01:52;5.45;;;4.90;;
20375;SDS011;10347;51.828;6.466;2022-08-19T14:04:23;5.28;;;4.78;;
20375;SDS011;10347;51.828;6.466;2022-08-19T14:06:48;4.60;;;4.07;;
20375;SDS011;10347;51.828;6.466;2022-08-19T14:09:14;6.35;;;4.55;;
20375;SDS011;10347;51.828;6.466;2022-08-19T14:11:39;4.72;;;3.75;;
20375;SDS011;10347;51.828;6.466;2022-08-19T14:14:05;5.70;;;5.10;;
20375;SDS011;10347;51.828;6.466;2022-08-19T14:16:31;5.50;;;4.72;;
20375;SDS011;10347;51.828;6.466;2022-08-19T14:18:56;7.75;;;4.38;;
20375;SDS011;10347;51.828;6.466;2022-08-19T14:21:22;8.88;;;5.82;;
20375;SDS011;10347;51.828;6.466;2022-08-19T14:23:49;9.57;;;6.82;;
20375;SDS011;10347;51.828;6.466;2022-08-19T14:26:16;10.73;;;6.57;;
20375;SDS011;10347;51.828;6.466;2022-08-19T14:28:43;8.73;;;7.10;;
20375;SDS011;10347;51.828;6.466;2022-08-19T14:31:09;8.48;;;6.53;;
20375;SDS011;10347;51.828;6.466;2022-08-19T14:33:43;10.48;;;7.65;;
20375;SDS011;10347;51.828;6.466;2022-08-19T14:36:09;7.38;;;5.90;;
20375;SDS011;10347;51.828;6.466;2022-08-19T14:38:34;8.38;;;6.25;;
20375;SDS011;10347;51.828;6.466;2022-08-19T14:43:32;7.45;;;5.55;;
20375;SDS011;10347;51.828;6.466;2022-08-19T14:45:59;9.50;;;6.55;;
20375;SDS011;10347;51.828;6.466;2022-08-19T14:48:24;9.60;;;6.50;;
20375;SDS011;10347;51.828;6.466;2022-08-19T14:50:51;9.68;;;7.93;;
20375;SDS011;10347;51.828;6.466;2022-08-19T14:53:17;9.20;;;6.95;;
20375;SDS011;10347;51.828;6.466;2022-08-19T14:55:43;11.07;;;7.75;;
20375;SDS011;10347;51.828;6.466;2022-08-19T14:58:09;9.13;;;7.40;;